Catàleg de serveis del Meteocat

Dades de l'estació automàtica la Quar

?
?
Resum diari 23:00 TU
Dades diàries de l'estació meteorològica
Temperatura mitjana 4.7 °C
Temperatura màxima 6.4 °C 18:28 TU
Temperatura mínima 2.7 °C 5:39 TU
Humitat relativa mitjana 100%
Precipitació acumulada 8.3 mm
Ratxa màxima del vent (10 m) 24.1 km/h - 271º 18:45 TU
Pressió atmosfèrica mitjana 1002.1 hPa

El tram horari està expressat en Temps Universal (TU). Cal sumar una hora en horari d'hivern i dues en horari d'estiu per passar a l'hora oficial.

la Quar

Metadades estació meteorol´gica
Municipi La Quar
Comarca Berguedà
Altitud 873 m
Data alta 13.03.1996
Estat actual Operativa
Dades de període
Període
TU
TM
°C
TX
°C
TN
°C
HRM
%
PPT
mm
VVM (10 m)
km/h
DVM (10 m)
graus
VVX (10 m)
km/h
PM
hPa
00:00 - 00:30 4.1 4.2 4.0 100 0.0 1.1 263 4.0 1001.4
00:30 - 01:00 3.4 4.0 3.1 100 0.0 2.5 304 5.8 1001.4
01:00 - 01:30 3.2 3.4 3.0 100 0.0 3.6 282 6.5 1001.5
01:30 - 02:00 3.1 3.4 2.7 100 0.0 2.9 261 6.1 1001.4
02:00 - 02:30 2.9 3.0 2.7 100 0.0 2.2 272 5.4 1001.6
02:30 - 03:00 2.8 3.1 2.7 100 0.0 1.4 293 4.0 1001.5
03:00 - 03:30 3.5 3.8 3.1 100 0.0 2.5 240 8.3 1001.0
03:30 - 04:00 3.9 3.9 3.8 100 0.0 1.8 225 5.4 1001.0
04:00 - 04:30 4.0 4.1 3.9 100 0.0 2.5 249 7.2 1001.0
04:30 - 05:00 3.8 3.9 3.6 100 0.0 1.1 255 4.3 1001.1
05:00 - 05:30 3.3 3.6 3.1 100 0.0 1.4 3 3.6 1001.3
05:30 - 06:00 2.9 3.2 2.7 100 0.0 2.2 277 4.7 1001.7
06:00 - 06:30 3.8 3.9 3.2 100 0.1 2.9 263 7.6 1001.6
06:30 - 07:00 4.0 4.1 3.9 100 0.0 3.2 258 9.0 1001.7
07:00 - 07:30 4.1 4.5 4.0 100 0.0 1.1 279 6.5 1001.5
07:30 - 08:00 4.4 4.5 4.3 100 0.0 2.5 218 9.0 1001.9
08:00 - 08:30 4.6 4.8 4.4 100 0.0 2.9 216 6.5 1002.0
08:30 - 09:00 4.9 5.0 4.8 100 0.0 2.2 207 6.5 1002.1
09:00 - 09:30 5.2 5.4 4.9 100 0.0 2.2 220 6.1 1002.1
09:30 - 10:00 5.3 5.5 5.1 100 0.0 1.4 250 6.1 1002.4
10:00 - 10:30 5.6 5.8 5.5 100 0.0 1.4 191 6.1 1002.4
10:30 - 11:00 5.7 5.8 5.5 99 0.0 1.8 199 6.1 1002.5
11:00 - 11:30 5.7 5.9 5.5 99 0.0 0.7 108 3.2 1002.2
11:30 - 12:00 5.7 5.8 5.6 99 0.2 1.1 207 4.3 1002.0
12:00 - 12:30 5.6 5.8 5.5 98 0.7 0.7 189 3.6 1001.9
12:30 - 13:00 5.7 5.7 5.6 98 0.3 0.7 154 3.6 1001.7
13:00 - 13:30 5.7 5.9 5.6 99 0.1 0.7 84 4.3 1001.6
13:30 - 14:00 5.9 6.1 5.7 99 0.1 1.8 66 4.3 1001.3
14:00 - 14:30 6.0 6.1 5.9 99 0.3 1.1 43 4.0 1001.2
14:30 - 15:00 6.1 6.2 6.0 99 0.1 1.4 243 4.7 1001.2
15:00 - 15:30 6.2 6.3 6.0 99 0.1 0.4 219 2.5 1001.4
15:30 - 16:00 6.2 6.3 6.2 99 0.0 0.7 315 4.3 1001.4
16:00 - 16:30 6.2 6.3 6.2 99 0.0 1.1 336 3.6 1001.4
16:30 - 17:00 5.9 6.2 5.7 99 0.0 2.9 16 6.5 1001.5
17:00 - 17:30 5.8 5.8 5.7 100 0.1 2.2 16 6.1 1001.7
17:30 - 18:00 5.9 6.0 5.9 100 0.0 1.8 10 5.8 1002.1
18:00 - 18:30 6.2 6.4 6.1 100 0.4 3.6 276 14.4 1002.4
18:30 - 19:00 5.8 6.4 5.2 100 4.9 10.8 249 24.1 1003.5
19:00 - 19:30 5.1 5.3 5.0 100 0.9 4.3 26 16.6 1003.1
19:30 - 20:00 4.9 5.1 4.7 100 0.0 2.5 15 9.4 1003.2
20:00 - 20:30 4.6 4.7 4.5 100 0.0 1.8 2 4.7 1003.5
20:30 - 21:00 4.3 4.5 4.0 100 0.0 2.2 308 4.7 1003.8
21:00 - 21:30 4.0 4.1 3.9 100 0.0 1.8 303 4.3 1004.1
21:30 - 22:00 3.8 4.0 3.7 100 0.0 3.2 286 5.8 1004.2
22:00 - 22:30 4.0 4.3 3.8 100 0.0 5.0 284 10.4 1004.1
22:30 - 23:00 3.6 4.1 3.3 100 0.0 4.3 285 7.2 1004.6
23:00 - 23:30 3.4 3.9 3.0 100 0.0 4.0 237 9.0 1005.2

Les dades en taronja només han passat un control de qualitat automàtic. Resta pendent la seva validació definitiva.